Weather at Tok Junction Airport

Public forecast

Using degrees Fahrenheit for public forecast. Weather courtesy of forecast.io.

Closest aviation weather report (METAR) to Tok Junction Airport

Closest report is Northway Airport, 35.5 nm (65.8 km) SE. Retrieved 2021/01/17 12:53 UTC (54 minutes ago):

PAOR 171253Z 00000KT 10SM BKN090 OVC120 M17/M20 A2950

Closest aviation forecast (TAF) to Tok Junction Airport

Closest forecast is Northway Airport, 35.5 nm (65.8 km) SE. Retrieved 2021/01/17 12:28 UTC (1 hour ago):

TAF PAOR 171126Z 1712/1812 00000KT P6SM BKN090 OVC120